Time;durP1;ratioP1;P1;durP2;ratioP2;P2;SDS_P1;SDS_P2;PMS_P1;PMS_P2;Temp;Humidity;BMP_temperature;BMP_pressure;BME280_temperature;BME280_humidity;BME280_pressure;Samples;Min_cycle;Max_cycle;Signal;HPM_P1;HPM_P2
2023/04/12 00:00:31;;;;;;;0.03;0.03;;;9.60;99.90;;;;;;5061756;28;20283;-81
2023/04/12 00:02:58;;;;;;;0.10;0.10;;;9.80;99.90;;;;;;5060954;28;20441;-82
2023/04/12 00:05:26;;;;;;;0.10;0.10;;;9.80;99.90;;;;;;5062468;28;20215;-82
2023/04/12 00:07:52;;;;;;;0.10;0.10;;;9.80;99.90;;;;;;5059676;28;20188;-81
2023/04/12 00:10:17;;;;;;;0.10;0.10;;;9.70;99.90;;;;;;5062371;28;20186;-81
2023/04/12 00:12:43;;;;;;;0.10;0.10;;;9.70;99.90;;;;;;5061746;28;20242;-81
2023/04/12 00:15:10;;;;;;;0.10;0.10;;;9.60;99.90;;;;;;5041888;28;20215;-82
2023/04/12 00:17:36;;;;;;;0.10;0.10;;;9.80;99.90;;;;;;5063189;28;20198;-81
2023/04/12 00:20:10;;;;;;;0.10;0.10;;;9.90;99.90;;;;;;5059951;28;20628;-81
2023/04/12 00:22:35;;;;;;;0.10;0.10;;;10.10;99.90;;;;;;5061624;28;20197;-81
2023/04/12 00:25:01;;;;;;;0.10;0.10;;;10.20;99.90;;;;;;5059292;28;20200;-81
2023/04/12 00:27:26;;;;;;;0.10;0.10;;;10.20;99.90;;;;;;5058013;28;20275;-81
2023/04/12 00:29:52;;;;;;;0.10;0.10;;;9.80;99.90;;;;;;5060010;28;20189;-81
2023/04/12 00:32:18;;;;;;;0.10;0.10;;;10.00;99.90;;;;;;5062134;28;20335;-81
2023/04/12 00:34:43;;;;;;;0.10;0.10;;;10.00;99.90;;;;;;5060295;28;20596;-81
2023/04/12 00:37:09;;;;;;;0.10;0.10;;;10.10;99.90;;;;;;5055639;28;20185;-81
2023/04/12 00:39:34;;;;;;;0.10;0.10;;;10.20;99.90;;;;;;5059010;28;20185;-81
2023/04/12 00:42:03;;;;;;;0.10;0.10;;;10.10;99.90;;;;;;5060393;28;20193;-81
2023/04/12 00:44:30;;;;;;;0.10;0.10;;;10.00;99.90;;;;;;5060209;28;20204;-81
2023/04/12 00:46:57;;;;;;;0.10;0.10;;;10.10;99.90;;;;;;5061472;28;20193;-81
2023/04/12 00:49:23;;;;;;;0.00;0.00;;;9.90;99.90;;;;;;5060170;28;20177;-81
2023/04/12 00:51:48;;;;;;;0.10;0.10;;;9.70;99.90;;;;;;5060226;28;20665;-82
2023/04/12 00:54:16;;;;;;;0.10;0.10;;;9.80;99.90;;;;;;5058031;28;20209;-81
2023/04/12 00:56:43;;;;;;;0.10;0.10;;;9.80;99.90;;;;;;5062348;28;20176;-81
2023/04/12 00:59:09;;;;;;;0.10;0.10;;;9.80;99.90;;;;;;5061172;28;20194;-81
2023/04/12 01:01:37;;;;;;;0.10;0.10;;;9.90;99.90;;;;;;5056520;28;20177;-81
2023/04/12 01:04:03;;;;;;;0.10;0.10;;;10.00;99.90;;;;;;5062476;28;20204;-81
2023/04/12 01:06:40;;;;;;;0.10;0.10;;;10.10;99.90;;;;;;5061921;28;20703;-81
2023/04/12 01:09:33;;;;;;;0.10;0.10;;;10.20;99.90;;;;;;5060818;28;20185;-81
2023/04/12 01:12:17;;;;;;;0.10;0.10;;;10.20;99.90;;;;;;5056617;28;20204;-80
2023/04/12 01:15:15;;;;;;;0.10;0.10;;;10.40;99.90;;;;;;5061090;28;21479;-81
2023/04/12 01:18:04;;;;;;;0.07;0.07;;;10.40;99.90;;;;;;5040535;28;20193;-81
2023/04/12 01:20:38;;;;;;;0.10;0.10;;;10.40;99.90;;;;;;5056646;28;20682;-82
2023/04/12 01:23:34;;;;;;;0.10;0.10;;;10.30;99.90;;;;;;5060387;28;20689;-81
2023/04/12 01:26:31;;;;;;;0.07;0.07;;;10.30;99.90;;;;;;5061733;28;20173;-82
2023/04/12 01:29:00;;;;;;;0.10;0.10;;;10.20;99.90;;;;;;5059688;28;20177;-81
2023/04/12 01:31:28;;;;;;;0.00;0.00;;;10.20;99.90;;;;;;5060814;28;20208;-82
2023/04/12 01:33:55;;;;;;;0.10;0.10;;;10.10;99.90;;;;;;5061151;28;20287;-82
2023/04/12 01:36:22;;;;;;;0.10;0.10;;;10.10;99.90;;;;;;5059877;28;20254;-82
2023/04/12 01:38:49;;;;;;;0.10;0.10;;;10.10;99.90;;;;;;5056726;28;20244;-82
2023/04/12 01:41:15;;;;;;;0.10;0.10;;;10.10;99.90;;;;;;5062791;28;20185;-81
2023/04/12 01:43:42;;;;;;;0.10;0.10;;;10.00;99.90;;;;;;5055437;28;20220;-82
2023/04/12 01:46:08;;;;;;;0.10;0.10;;;10.00;99.90;;;;;;5056110;28;20181;-82
2023/04/12 01:48:34;;;;;;;0.10;0.10;;;10.00;99.90;;;;;;5058221;28;20730;-82
2023/04/12 01:51:13;;;;;;;0.00;0.00;;;10.00;99.90;;;;;;5057145;28;20215;-81
2023/04/12 01:53:52;;;;;;;0.10;0.10;;;10.00;99.90;;;;;;5056794;28;20344;-81
2023/04/12 01:56:21;;;;;;;0.10;0.10;;;10.00;99.90;;;;;;5059926;28;20211;-81
2023/04/12 01:58:49;;;;;;;0.10;0.10;;;9.90;99.90;;;;;;5059262;28;20667;-82
2023/04/12 02:01:16;;;;;;;0.10;0.10;;;9.80;99.90;;;;;;5055371;28;20181;-81
2023/04/12 02:03:42;;;;;;;0.10;0.10;;;9.80;99.90;;;;;;5078129;28;20244;-82
2023/04/12 02:06:09;;;;;;;0.10;0.10;;;9.90;99.90;;;;;;5061949;28;20180;-81
2023/04/12 02:08:35;;;;;;;0.10;0.10;;;9.90;99.90;;;;;;5059924;28;20193;-81
2023/04/12 02:11:10;;;;;;;0.10;0.10;;;9.90;99.90;;;;;;5062306;28;20670;-81
2023/04/12 02:13:36;;;;;;;0.10;0.10;;;9.90;99.90;;;;;;5060383;28;20295;-81
2023/04/12 02:16:01;;;;;;;0.10;0.10;;;9.90;99.90;;;;;;5060117;28;20310;-82
2023/04/12 02:18:27;;;;;;;0.07;0.07;;;9.90;99.90;;;;;;5058783;28;20202;-82
2023/04/12 02:20:54;;;;;;;0.10;0.10;;;9.90;99.90;;;;;;5057681;28;20181;-81
2023/04/12 02:23:20;;;;;;;0.10;0.10;;;9.90;99.90;;;;;;5080873;28;20275;-82
2023/04/12 02:25:45;;;;;;;0.10;0.10;;;10.00;99.90;;;;;;5064739;28;20192;-82
2023/04/12 02:28:12;;;;;;;0.10;0.10;;;10.00;99.90;;;;;;5066018;28;20200;-81
2023/04/12 02:30:40;;;;;;;0.10;0.10;;;10.00;99.90;;;;;;5066366;28;22152;-81
2023/04/12 02:33:08;;;;;;;0.10;0.10;;;9.90;99.90;;;;;;5064653;28;20209;-82
2023/04/12 02:35:35;;;;;;;0.10;0.10;;;9.90;99.90;;;;;;5064281;28;20189;-81
2023/04/12 02:38:02;;;;;;;0.10;0.10;;;10.00;99.90;;;;;;5064829;28;20181;-81
2023/04/12 02:40:28;;;;;;;0.10;0.10;;;10.00;99.90;;;;;;5065701;28;20189;-82
2023/04/12 02:42:54;;;;;;;0.10;0.10;;;10.00;99.90;;;;;;5063779;28;20189;-81
2023/04/12 02:45:20;;;;;;;0.10;0.10;;;10.10;99.90;;;;;;5059219;28;20200;-82
2023/04/12 02:47:45;;;;;;;0.10;0.10;;;10.00;99.90;;;;;;5066130;28;20189;-82
2023/04/12 02:50:11;;;;;;;0.10;0.10;;;10.10;99.90;;;;;;5059360;28;20203;-82
2023/04/12 02:52:36;;;;;;;0.10;0.10;;;10.10;99.90;;;;;;5061235;28;20208;-81
2023/04/12 02:55:02;;;;;;;0.10;0.10;;;10.10;99.90;;;;;;5059820;28;20215;-81
2023/04/12 02:57:28;;;;;;;0.10;0.10;;;10.10;99.90;;;;;;5062824;28;20185;-82
2023/04/12 02:59:53;;;;;;;0.10;0.10;;;10.00;99.90;;;;;;5064607;28;20204;-81
2023/04/12 03:02:20;;;;;;;0.10;0.10;;;10.10;99.90;;;;;;5063667;28;20254;-83
2023/04/12 03:04:49;;;;;;;0.10;0.10;;;10.10;99.90;;;;;;5063254;28;20265;-81
2023/04/12 03:07:17;;;;;;;0.10;0.10;;;10.00;99.90;;;;;;5063550;28;20658;-82
2023/04/12 03:09:44;;;;;;;0.10;0.10;;;10.00;99.90;;;;;;5060270;28;20207;-82
2023/04/12 03:12:09;;;;;;;0.10;0.10;;;9.90;99.90;;;;;;5065754;28;20208;-82
2023/04/12 03:14:35;;;;;;;0.10;0.10;;;9.80;99.90;;;;;;5061098;28;20200;-82
2023/04/12 03:17:00;;;;;;;0.10;0.10;;;9.80;99.90;;;;;;5062594;28;20185;-82
2023/04/12 03:19:27;;;;;;;0.10;0.10;;;9.80;99.90;;;;;;5062643;28;20445;-82
2023/04/12 03:21:53;;;;;;;0.10;0.10;;;9.80;99.90;;;;;;5057383;28;20627;-82
2023/04/12 03:24:18;;;;;;;0.10;0.10;;;9.80;99.90;;;;;;5061539;28;20292;-83
2023/04/12 03:26:44;;;;;;;0.10;0.10;;;9.80;99.90;;;;;;5061171;28;20219;-81
2023/04/12 03:29:09;;;;;;;0.10;0.10;;;9.80;99.90;;;;;;5059005;28;20194;-81
2023/04/12 03:31:35;;;;;;;0.10;0.10;;;9.80;99.90;;;;;;5063073;28;20248;-83
2023/04/12 03:34:01;;;;;;;0.10;0.10;;;9.70;99.90;;;;;;5060421;28;20700;-82
2023/04/12 03:36:28;;;;;;;0.10;0.10;;;9.70;99.90;;;;;;5065954;28;20181;-82
2023/04/12 03:38:54;;;;;;;0.10;0.10;;;9.70;99.90;;;;;;5063085;28;20195;-82
2023/04/12 03:41:23;;;;;;;0.10;0.10;;;9.60;99.90;;;;;;5063094;28;20189;-81
2023/04/12 03:43:48;;;;;;;0.10;0.10;;;9.60;99.90;;;;;;5062668;28;20561;-81
2023/04/12 03:46:14;;;;;;;0.10;0.10;;;9.60;99.90;;;;;;5064827;28;20238;-82
2023/04/12 03:48:40;;;;;;;0.10;0.10;;;9.60;99.90;;;;;;5060852;28;20184;-82
2023/04/12 03:51:07;;;;;;;0.10;0.10;;;9.50;99.90;;;;;;5061953;28;20262;-83
2023/04/12 03:53:33;;;;;;;0.10;0.10;;;9.50;99.90;;;;;;5064668;28;20204;-82
2023/04/12 03:55:59;;;;;;;0.10;0.10;;;9.40;99.90;;;;;;5062964;28;20181;-81
2023/04/12 03:58:25;;;;;;;0.10;0.10;;;9.40;99.90;;;;;;5059649;28;20185;-82
2023/04/12 04:00:50;;;;;;;0.10;0.10;;;9.40;99.90;;;;;;5066664;28;20189;-82
2023/04/12 04:03:17;;;;;;;0.10;0.10;;;9.40;99.90;;;;;;5057775;28;20216;-81
2023/04/12 04:05:43;;;;;;;0.10;0.10;;;9.30;99.90;;;;;;5064269;28;20185;-82
2023/04/12 04:08:09;;;;;;;0.10;0.10;;;8.90;99.90;;;;;;5061016;28;20189;-82
2023/04/12 04:10:35;;;;;;;0.10;0.10;;;9.00;99.90;;;;;;5061694;28;20188;-82
2023/04/12 04:13:00;;;;;;;0.10;0.10;;;9.00;99.90;;;;;;5064246;28;20243;-81
2023/04/12 04:15:26;;;;;;;0.10;0.10;;;9.10;99.90;;;;;;5065332;28;20177;-82
2023/04/12 04:17:52;;;;;;;0.10;0.10;;;9.00;99.90;;;;;;5060645;28;20189;-82
2023/04/12 04:20:18;;;;;;;0.00;0.00;;;8.90;99.90;;;;;;5064965;28;20184;-82
2023/04/12 04:22:48;;;;;;;0.10;0.10;;;8.90;99.90;;;;;;5064298;28;20288;-83
2023/04/12 04:25:14;;;;;;;0.10;0.10;;;8.80;99.90;;;;;;5063603;28;20523;-82
2023/04/12 04:27:46;;;;;;;0.10;0.10;;;8.80;99.90;;;;;;5064146;28;20481;-82
2023/04/12 04:30:14;;;;;;;0.10;0.10;;;8.90;99.90;;;;;;5061431;28;20781;-82
2023/04/12 04:32:40;;;;;;;0.10;0.10;;;8.90;99.90;;;;;;5060351;28;20212;-82
2023/04/12 04:35:06;;;;;;;0.10;0.10;;;8.90;99.90;;;;;;5063052;28;20184;-81
2023/04/12 04:37:35;;;;;;;0.10;0.10;;;9.00;99.90;;;;;;5062875;28;20191;-81
2023/04/12 04:40:10;;;;;;;0.00;0.00;;;9.00;99.90;;;;;;5063526;28;20794;-82
2023/04/12 04:42:37;;;;;;;0.10;0.10;;;9.00;99.90;;;;;;5062094;28;20186;-82
2023/04/12 04:45:03;;;;;;;0.10;0.10;;;9.00;99.90;;;;;;5059339;28;20192;-83
2023/04/12 04:47:29;;;;;;;0.10;0.10;;;8.90;99.90;;;;;;5057137;28;20188;-83
2023/04/12 04:49:56;;;;;;;0.10;0.10;;;8.80;99.90;;;;;;5063192;28;20191;-82
2023/04/12 04:52:22;;;;;;;0.10;0.10;;;8.70;99.90;;;;;;5059457;28;20201;-82
2023/04/12 04:54:48;;;;;;;0.10;0.10;;;8.70;99.90;;;;;;5062841;28;20308;-81
2023/04/12 04:57:13;;;;;;;0.10;0.10;;;8.80;99.90;;;;;;5062578;28;20182;-81
2023/04/12 04:59:39;;;;;;;0.10;0.10;;;8.80;99.90;;;;;;5063974;28;21252;-82
2023/04/12 05:02:04;;;;;;;0.10;0.10;;;8.70;99.90;;;;;;5059747;28;20210;-80
2023/04/12 05:04:30;;;;;;;0.10;0.10;;;8.90;99.90;;;;;;5062146;28;20209;-82
2023/04/12 05:06:56;;;;;;;0.10;0.10;;;9.00;99.90;;;;;;5063101;28;20568;-81
2023/04/12 05:09:21;;;;;;;0.10;0.10;;;9.00;99.90;;;;;;5057419;28;20194;-82
2023/04/12 05:11:47;;;;;;;0.07;0.07;;;9.00;99.90;;;;;;5065517;28;20811;-83
2023/04/12 05:14:12;;;;;;;0.10;0.10;;;9.10;99.90;;;;;;5060210;28;20205;-83
2023/04/12 05:16:38;;;;;;;0.10;0.10;;;9.10;99.90;;;;;;5059567;28;20177;-83
2023/04/12 05:19:03;;;;;;;0.10;0.10;;;9.10;99.90;;;;;;5058668;28;20176;-84
2023/04/12 05:21:29;;;;;;;0.00;0.00;;;9.20;99.90;;;;;;5058600;28;20189;-83
2023/04/12 05:23:55;;;;;;;0.10;0.10;;;9.20;99.90;;;;;;5058205;28;20212;-81
2023/04/12 05:26:23;;;;;;;0.10;0.10;;;9.20;99.90;;;;;;5058406;28;20209;-82
2023/04/12 05:28:49;;;;;;;0.10;0.10;;;9.20;99.90;;;;;;5056851;28;20192;-82
2023/04/12 05:31:14;;;;;;;0.10;0.10;;;9.20;99.90;;;;;;5062781;28;20681;-82
2023/04/12 05:33:40;;;;;;;0.10;0.10;;;9.10;99.90;;;;;;5061665;28;20280;-82
2023/04/12 05:36:06;;;;;;;0.10;0.10;;;9.00;99.90;;;;;;5062614;28;20241;-82
2023/04/12 05:38:31;;;;;;;0.10;0.10;;;9.10;99.90;;;;;;5061544;28;20617;-81
2023/04/12 05:40:57;;;;;;;0.10;0.10;;;9.20;99.90;;;;;;5059245;28;20181;-82
2023/04/12 05:43:22;;;;;;;0.10;0.10;;;9.20;99.90;;;;;;5063537;28;20204;-82
2023/04/12 05:45:50;;;;;;;0.10;0.10;;;9.20;99.90;;;;;;5060922;28;20659;-82
2023/04/12 05:48:18;;;;;;;0.10;0.10;;;9.20;99.90;;;;;;5058293;28;20184;-82
2023/04/12 05:50:51;;;;;;;0.10;0.10;;;9.30;99.90;;;;;;5056633;28;20757;-82
2023/04/12 05:53:17;;;;;;;0.10;0.10;;;9.30;99.90;;;;;;5060518;28;20205;-82
2023/04/12 05:55:43;;;;;;;0.10;0.10;;;9.20;99.90;;;;;;5060716;28;20181;-81
2023/04/12 05:58:09;;;;;;;0.10;0.10;;;9.20;99.90;;;;;;5060580;28;20173;-82
2023/04/12 06:00:35;;;;;;;0.10;0.10;;;9.20;99.90;;;;;;5063327;28;20173;-82
2023/04/12 06:03:00;;;;;;;0.10;0.10;;;9.20;99.90;;;;;;5067489;28;20572;-82
2023/04/12 06:05:26;;;;;;;0.10;0.10;;;9.20;99.90;;;;;;5064729;28;20192;-82
2023/04/12 06:07:52;;;;;;;0.10;0.10;;;9.20;99.90;;;;;;5059249;28;20193;-83
2023/04/12 06:10:17;;;;;;;11.13;10.53;;;9.10;99.90;;;;;;5063580;28;20220;-82
2023/04/12 06:12:43;;;;;;;0.10;0.10;;;9.10;99.90;;;;;;5067679;28;20282;-82
2023/04/12 06:15:09;;;;;;;0.10;0.10;;;9.10;99.90;;;;;;5064085;28;20185;-82
2023/04/12 06:17:36;;;;;;;0.10;0.10;;;9.10;99.90;;;;;;5063654;28;20261;-82
2023/04/12 06:20:04;;;;;;;0.10;0.10;;;9.10;99.90;;;;;;5061687;28;20219;-82
2023/04/12 06:22:31;;;;;;;0.07;0.07;;;9.10;99.90;;;;;;5059773;28;20676;-82
2023/04/12 06:24:57;;;;;;;0.10;0.10;;;9.10;99.90;;;;;;5067877;28;20204;-82
2023/04/12 06:27:24;;;;;;;0.10;0.10;;;9.10;99.90;;;;;;5061287;28;20177;-81
2023/04/12 06:29:50;;;;;;;0.10;0.10;;;9.10;99.90;;;;;;5066574;28;20234;-82
2023/04/12 06:32:15;;;;;;;0.10;0.10;;;9.10;99.90;;;;;;5064549;28;20205;-82
2023/04/12 06:34:41;;;;;;;0.10;0.10;;;9.10;99.90;;;;;;5061884;28;20209;-83
2023/04/12 06:37:08;;;;;;;0.10;0.10;;;9.10;99.90;;;;;;5060392;28;20181;-85
2023/04/12 06:39:34;;;;;;;0.10;0.10;;;9.10;99.90;;;;;;5064101;28;20192;-84
2023/04/12 06:42:00;;;;;;;0.10;0.10;;;9.20;99.90;;;;;;5065522;28;20181;-84
2023/04/12 06:44:26;;;;;;;0.10;0.10;;;9.20;99.90;;;;;;5065878;28;20645;-84
2023/04/12 06:46:52;;;;;;;0.10;0.10;;;9.20;99.90;;;;;;5065153;28;20189;-83
2023/04/12 06:49:18;;;;;;;0.10;0.10;;;9.30;99.90;;;;;;5062788;28;20189;-82
2023/04/12 06:51:43;;;;;;;0.10;0.10;;;9.30;99.90;;;;;;5065431;28;20235;-82
2023/04/12 06:54:09;;;;;;;0.10;0.10;;;9.30;99.90;;;;;;5061246;28;20193;-82
2023/04/12 06:56:38;;;;;;;0.10;0.10;;;9.30;99.90;;;;;;5068483;28;20181;-83
2023/04/12 06:59:05;;;;;;;0.10;0.10;;;9.20;99.90;;;;;;5066234;28;20235;-83
2023/04/12 07:01:30;;;;;;;0.10;0.10;;;9.30;99.90;;;;;;5066073;28;20187;-82
2023/04/12 07:03:56;;;;;;;0.10;0.10;;;9.20;99.90;;;;;;5057062;28;20222;-82
2023/04/12 07:06:22;;;;;;;0.10;0.10;;;9.20;99.90;;;;;;5060007;28;20232;-82
2023/04/12 07:08:48;;;;;;;0.10;0.10;;;9.30;99.90;;;;;;5061232;28;20189;-82
2023/04/12 07:11:14;;;;;;;0.10;0.10;;;9.30;99.90;;;;;;5068689;28;20209;-82
2023/04/12 07:13:39;;;;;;;0.10;0.10;;;9.30;99.90;;;;;;5072950;28;20724;-82
2023/04/12 07:16:05;;;;;;;0.10;0.10;;;9.30;99.90;;;;;;5071983;28;20193;-83
2023/04/12 07:18:31;;;;;;;0.10;0.10;;;9.30;99.90;;;;;;5067783;28;20185;-82
2023/04/12 07:20:57;;;;;;;0.10;0.10;;;9.30;99.90;;;;;;5066721;28;20192;-82
2023/04/12 07:23:24;;;;;;;0.10;0.10;;;9.30;99.90;;;;;;5067048;28;20222;-82
2023/04/12 07:25:50;;;;;;;0.10;0.10;;;9.30;99.90;;;;;;5064746;28;20193;-82
2023/04/12 07:28:15;;;;;;;0.10;0.10;;;9.40;99.90;;;;;;5065263;28;20221;-83
2023/04/12 07:30:41;;;;;;;0.10;0.10;;;9.50;99.90;;;;;;5068503;28;20204;-82
2023/04/12 07:33:06;;;;;;;0.10;0.10;;;9.50;99.90;;;;;;5063240;28;20280;-83
2023/04/12 07:35:33;;;;;;;0.10;0.10;;;9.50;99.90;;;;;;5064479;28;20333;-82
2023/04/12 07:38:00;;;;;;;0.10;0.10;;;9.50;99.90;;;;;;5065654;28;20189;-82
2023/04/12 07:40:25;;;;;;;0.10;0.10;;;9.50;99.90;;;;;;5066111;28;20303;-82
2023/04/12 07:42:51;;;;;;;0.10;0.10;;;9.50;99.90;;;;;;5062552;28;20339;-82
2023/04/12 07:45:17;;;;;;;0.10;0.10;;;9.50;99.90;;;;;;5061519;28;20193;-83
2023/04/12 07:47:43;;;;;;;0.07;0.07;;;9.60;99.90;;;;;;5056644;28;20714;-82
2023/04/12 07:50:09;;;;;;;0.10;0.10;;;9.70;99.90;;;;;;5062579;28;20279;-82
2023/04/12 07:52:35;;;;;;;0.10;0.10;;;9.70;99.90;;;;;;5066821;28;20258;-83
2023/04/12 07:55:00;;;;;;;0.10;0.10;;;9.70;99.90;;;;;;5064811;28;20278;-84
2023/04/12 07:57:26;;;;;;;0.10;0.10;;;9.80;99.90;;;;;;5063902;28;20270;-81
2023/04/12 07:59:51;;;;;;;0.10;0.10;;;9.80;99.90;;;;;;5062095;28;20176;-82
2023/04/12 08:02:23;;;;;;;0.10;0.10;;;9.80;99.90;;;;;;5066512;28;20226;-85
2023/04/12 08:04:50;;;;;;;0.10;0.10;;;9.80;99.90;;;;;;5064100;28;20287;-84
2023/04/12 08:07:16;;;;;;;0.10;0.10;;;9.90;99.90;;;;;;5064747;28;20311;-82
2023/04/12 08:09:41;;;;;;;0.10;0.10;;;9.90;99.90;;;;;;5059510;28;20176;-81
2023/04/12 08:12:07;;;;;;;0.10;0.10;;;9.90;99.90;;;;;;5068202;28;20223;-81
2023/04/12 08:14:33;;;;;;;0.10;0.10;;;10.00;99.90;;;;;;5064100;28;20574;-81
2023/04/12 08:16:58;;;;;;;0.10;0.10;;;10.00;99.90;;;;;;5067520;28;20879;-82
2023/04/12 08:19:24;;;;;;;0.10;0.10;;;10.00;99.90;;;;;;5065738;28;20185;-81
2023/04/12 08:21:50;;;;;;;0.10;0.10;;;10.10;99.90;;;;;;5068683;28;20560;-82
2023/04/12 08:24:15;;;;;;;0.10;0.10;;;10.10;99.90;;;;;;5066018;28;20232;-83
2023/04/12 08:26:41;;;;;;;0.10;0.10;;;10.10;99.90;;;;;;5066596;28;20220;-82
2023/04/12 08:29:06;;;;;;;0.10;0.10;;;10.20;99.90;;;;;;5064563;28;20215;-81
2023/04/12 08:31:33;;;;;;;0.10;0.10;;;10.20;99.90;;;;;;5065667;28;20206;-82
2023/04/12 08:33:58;;;;;;;0.10;0.10;;;10.30;99.90;;;;;;5065197;28;20681;-81
2023/04/12 08:36:26;;;;;;;0.10;0.10;;;10.40;99.90;;;;;;5066945;28;20276;-83
2023/04/12 08:38:54;;;;;;;0.10;0.10;;;10.40;99.90;;;;;;5063053;28;20204;-85
2023/04/12 08:41:20;;;;;;;0.10;0.10;;;10.40;99.90;;;;;;5062062;28;20189;-85
2023/04/12 08:43:46;;;;;;;0.10;0.10;;;10.40;99.90;;;;;;5066183;28;20282;-84
2023/04/12 08:46:16;;;;;;;0.10;0.10;;;10.40;99.90;;;;;;5059937;28;20184;-83
2023/04/12 08:48:45;;;;;;;0.10;0.10;;;10.40;99.90;;;;;;5064833;28;21047;-84
2023/04/12 08:51:13;;;;;;;0.10;0.10;;;10.50;99.90;;;;;;5064927;28;20237;-83
2023/04/12 08:53:39;;;;;;;0.10;0.10;;;10.60;99.90;;;;;;5064293;28;20222;-83
2023/04/12 08:56:09;;;;;;;0.10;0.10;;;10.80;99.90;;;;;;5062619;28;20179;-82
2023/04/12 08:58:37;;;;;;;0.10;0.10;;;10.80;99.90;;;;;;5060950;28;20826;-83
2023/04/12 09:01:03;;;;;;;0.10;0.10;;;10.90;99.90;;;;;;5062915;28;20197;-83
2023/04/12 09:03:30;;;;;;;0.00;0.00;;;10.70;99.90;;;;;;5062329;28;20220;-82
2023/04/12 09:05:55;;;;;;;0.10;0.10;;;10.80;99.90;;;;;;5058855;28;20188;-82
2023/04/12 09:08:21;;;;;;;0.10;0.10;;;10.80;99.90;;;;;;5063151;28;20192;-83
2023/04/12 09:10:46;;;;;;;0.10;0.10;;;10.90;99.90;;;;;;5064200;28;20227;-82
2023/04/12 09:13:12;;;;;;;0.03;0.03;;;10.90;99.90;;;;;;5061938;28;20760;-83
2023/04/12 09:15:50;;;;;;;0.10;0.10;;;10.90;99.90;;;;;;5066950;28;20198;-83
2023/04/12 09:18:15;;;;;;;0.10;0.10;;;10.90;99.90;;;;;;5067266;28;20703;-83
2023/04/12 09:20:41;;;;;;;0.03;0.03;;;10.70;99.90;;;;;;5067929;28;20186;-84
2023/04/12 09:23:23;;;;;;;0.10;0.10;;;10.90;99.90;;;;;;5068432;28;20261;-84
2023/04/12 09:25:51;;;;;;;0.10;0.10;;;10.90;99.90;;;;;;5069849;28;20175;-82
2023/04/12 09:28:25;;;;;;;0.10;0.10;;;11.00;99.90;;;;;;5066975;28;20177;-82
2023/04/12 09:30:51;;;;;;;0.10;0.10;;;11.10;99.90;;;;;;5063074;28;20247;-82
2023/04/12 09:33:18;;;;;;;0.10;0.10;;;11.00;99.90;;;;;;5064087;28;20729;-82
2023/04/12 09:35:44;;;;;;;0.10;0.10;;;11.10;99.90;;;;;;5064719;28;20192;-83
2023/04/12 09:38:10;;;;;;;0.10;0.10;;;11.20;99.90;;;;;;5063334;28;20177;-83
2023/04/12 09:40:36;;;;;;;0.10;0.10;;;11.20;99.90;;;;;;5063690;28;20173;-83
2023/04/12 09:43:02;;;;;;;0.10;0.10;;;11.20;99.90;;;;;;5061638;28;20280;-82
2023/04/12 09:45:30;;;;;;;0.10;0.10;;;11.10;99.90;;;;;;5066339;28;20183;-83
2023/04/12 09:47:56;;;;;;;0.10;0.10;;;11.10;99.90;;;;;;5056621;28;20212;-83
2023/04/12 09:50:31;;;;;;;0.10;0.10;;;11.20;99.90;;;;;;5059017;28;20192;-82
2023/04/12 09:52:58;;;;;;;0.10;0.10;;;11.30;99.90;;;;;;5062517;28;20200;-83
2023/04/12 09:55:26;;;;;;;0.10;0.10;;;11.30;99.90;;;;;;5061621;28;20182;-82
2023/04/12 09:57:54;;;;;;;0.10;0.10;;;11.40;99.90;;;;;;5063760;28;20191;-82
2023/04/12 10:00:24;;;;;;;0.10;0.10;;;11.50;99.90;;;;;;5057855;28;20184;-82
2023/04/12 10:02:52;;;;;;;0.10;0.10;;;11.40;99.90;;;;;;5063186;28;20226;-83
2023/04/12 10:05:24;;;;;;;0.10;0.10;;;11.40;99.90;;;;;;5059505;28;20619;-83
2023/04/12 10:07:50;;;;;;;0.10;0.10;;;11.40;99.90;;;;;;5058222;28;20280;-83
2023/04/12 10:10:17;;;;;;;0.10;0.10;;;11.30;99.90;;;;;;5051624;28;20610;-82
2023/04/12 10:12:45;;;;;;;0.10;0.10;;;11.30;99.90;;;;;;5062742;28;20300;-83
2023/04/12 10:15:12;;;;;;;0.10;0.10;;;11.30;99.90;;;;;;5062968;28;20185;-81
2023/04/12 10:17:58;;;;;;;0.10;0.10;;;11.30;99.90;;;;;;5062527;28;20173;-82
2023/04/12 10:20:23;;;;;;;0.10;0.10;;;11.40;99.90;;;;;;5065280;28;20208;-83
2023/04/12 10:22:51;;;;;;;0.10;0.10;;;11.40;99.90;;;;;;5063932;28;20215;-82
2023/04/12 10:25:21;;;;;;;0.10;0.10;;;11.40;99.90;;;;;;5066877;28;20186;-82
2023/04/12 10:27:47;;;;;;;0.10;0.10;;;11.40;99.90;;;;;;5066769;28;20193;-83
2023/04/12 10:30:29;;;;;;;0.10;0.10;;;11.40;99.90;;;;;;5067039;28;20624;-82
2023/04/12 10:33:01;;;;;;;0.10;0.10;;;11.40;99.90;;;;;;5068066;28;20212;-82
2023/04/12 10:35:27;;;;;;;0.10;0.10;;;11.40;99.90;;;;;;5068810;28;20278;-83
2023/04/12 10:38:00;;;;;;;0.10;0.10;;;11.50;99.90;;;;;;5062203;28;20185;-82
2023/04/12 10:40:31;;;;;;;0.10;0.10;;;11.60;99.90;;;;;;5061005;28;20934;-82
2023/04/12 10:43:21;;;;;;;0.10;0.10;;;11.60;99.90;;;;;;5064690;28;20242;-82
2023/04/12 10:45:48;;;;;;;0.10;0.10;;;11.70;99.90;;;;;;5066601;28;20196;-81
2023/04/12 10:48:36;;;;;;;0.10;0.10;;;11.80;99.90;;;;;;5065811;28;20185;-81
2023/04/12 10:51:26;;;;;;;0.10;0.10;;;11.90;99.90;;;;;;5068420;28;20204;-82
2023/04/12 10:53:53;;;;;;;0.10;0.10;;;11.80;99.90;;;;;;5064883;28;20209;-82
2023/04/12 10:56:31;;;;;;;0.03;0.03;;;11.90;99.90;;;;;;5061770;28;20268;-83
2023/04/12 10:58:59;;;;;;;0.10;0.10;;;12.00;99.90;;;;;;5065730;28;20192;-82
2023/04/12 11:01:25;;;;;;;0.10;0.10;;;12.10;99.90;;;;;;5069026;28;20173;-82
2023/04/12 11:04:20;;;;;;;0.10;0.10;;;12.20;99.90;;;;;;5081404;28;20230;-81
2023/04/12 11:06:52;;;;;;;0.10;0.10;;;12.30;99.90;;;;;;5070091;28;20252;-82
2023/04/12 11:09:25;;;;;;;0.10;0.10;;;12.40;99.90;;;;;;5067805;28;21102;-82
2023/04/12 11:12:04;;;;;;;0.10;0.10;;;12.50;99.90;;;;;;5066496;28;20695;-82
2023/04/12 11:14:37;;;;;;;0.10;0.10;;;12.60;99.90;;;;;;5063059;28;20701;-82
2023/04/12 11:17:05;;;;;;;0.10;0.10;;;12.70;99.90;;;;;;5058565;28;20196;-82
2023/04/12 11:19:55;;;;;;;0.10;0.10;;;12.70;99.90;;;;;;5063724;28;20219;-81
2023/04/12 11:22:23;;;;;;;0.10;0.10;;;12.80;99.90;;;;;;5063465;28;20196;-83
2023/04/12 11:24:54;;;;;;;0.10;0.10;;;12.90;99.90;;;;;;5061464;28;20259;-80
2023/04/12 11:27:21;;;;;;;0.10;0.10;;;13.00;99.90;;;;;;5062776;28;20186;-81
2023/04/12 11:29:57;;;;;;;0.10;0.10;;;13.00;99.90;;;;;;5055282;28;20204;-82
2023/04/12 11:32:28;;;;;;;0.10;0.10;;;13.20;99.90;;;;;;5067709;28;20224;-81
2023/04/12 11:34:56;;;;;;;0.10;0.10;;;13.20;99.90;;;;;;5063001;28;20359;-81
2023/04/12 11:37:23;;;;;;;0.07;0.07;;;13.20;99.90;;;;;;5066888;28;20196;-82
2023/04/12 11:39:51;;;;;;;0.10;0.10;;;13.40;99.90;;;;;;5064867;28;20625;-81
2023/04/12 11:42:19;;;;;;;0.00;0.00;;;13.30;99.90;;;;;;5059873;28;20316;-82
2023/04/12 11:44:45;;;;;;;0.10;0.10;;;13.30;99.90;;;;;;5061008;28;20215;-81
2023/04/12 11:47:20;;;;;;;0.10;0.10;;;13.30;99.90;;;;;;5064704;28;20217;-82
2023/04/12 11:49:48;;;;;;;0.10;0.10;;;13.30;99.90;;;;;;5057549;28;20192;-82
2023/04/12 11:52:15;;;;;;;0.10;0.10;;;13.20;99.90;;;;;;5059596;28;20215;-80
2023/04/12 11:54:42;;;;;;;0.10;0.10;;;13.20;99.90;;;;;;5058691;28;20205;-81
2023/04/12 11:57:10;;;;;;;0.10;0.10;;;13.20;99.90;;;;;;5055312;28;20193;-81
2023/04/12 11:59:36;;;;;;;0.10;0.10;;;13.30;99.90;;;;;;5059929;28;20184;-83
2023/04/12 12:02:03;;;;;;;0.10;0.10;;;13.40;99.90;;;;;;5062891;28;20199;-81
2023/04/12 12:04:29;;;;;;;0.10;0.10;;;13.40;99.90;;;;;;5064279;28;20205;-82
2023/04/12 12:06:57;;;;;;;0.10;0.10;;;13.50;99.90;;;;;;5061328;28;20191;-83
2023/04/12 12:09:23;;;;;;;0.10;0.10;;;13.70;99.90;;;;;;5064575;28;20693;-81
2023/04/12 12:11:50;;;;;;;0.10;0.10;;;13.80;99.90;;;;;;5058750;28;20302;-81
2023/04/12 12:14:20;;;;;;;0.10;0.10;;;14.00;99.90;;;;;;5062324;28;20236;-82
2023/04/12 12:16:56;;;;;;;0.10;0.10;;;14.10;99.90;;;;;;5057729;28;20195;-82
2023/04/12 12:19:38;;;;;;;0.10;0.10;;;14.20;99.90;;;;;;5056898;28;20655;-81
2023/04/12 12:22:20;;;;;;;0.10;0.10;;;14.20;99.90;;;;;;5062403;28;20187;-81
2023/04/12 12:24:57;;;;;;;0.10;0.10;;;14.30;99.90;;;;;;5056619;28;20220;-81
2023/04/12 12:27:24;;;;;;;0.10;0.10;;;14.70;99.90;;;;;;5062023;28;20199;-81
2023/04/12 12:29:54;;;;;;;0.10;0.10;;;14.80;99.90;;;;;;5064044;28;20203;-82
2023/04/12 12:32:22;;;;;;;0.10;0.10;;;14.80;99.90;;;;;;5062793;28;20288;-81
2023/04/12 12:34:58;;;;;;;0.10;0.10;;;14.80;99.90;;;;;;5059803;28;20587;-80
2023/04/12 12:37:25;;;;;;;0.10;0.10;;;14.60;99.90;;;;;;5063281;28;20190;-81
2023/04/12 12:40:00;;;;;;;0.10;0.10;;;14.60;99.90;;;;;;5060498;28;20192;-81
2023/04/12 12:42:26;;;;;;;0.10;0.10;;;14.70;99.90;;;;;;5060987;28;20200;-82
2023/04/12 12:44:51;;;;;;;0.10;0.10;;;15.10;99.90;;;;;;5062342;28;20212;-82
2023/04/12 12:47:17;;;;;;;0.10;0.10;;;15.40;99.90;;;;;;5061229;28;20218;-81
2023/04/12 12:49:43;;;;;;;0.10;0.10;;;15.40;99.90;;;;;;5075404;28;20645;-82
2023/04/12 12:52:09;;;;;;;0.10;0.10;;;15.60;99.90;;;;;;5062819;28;20201;-82
2023/04/12 12:54:36;;;;;;;0.10;0.10;;;15.90;99.90;;;;;;5058338;28;20197;-83
2023/04/12 12:57:02;;;;;;;0.10;0.10;;;16.10;99.90;;;;;;5061894;28;20181;-81